sensor_id;sensor_type;location;lat;lon;timestamp;P1;durP1;ratioP1;P2;durP2;ratioP2
75021;SDS011;63583;49.976;20.182;2024-01-11T00:00:29;36.35;;;14.80;;
75021;SDS011;63583;49.976;20.182;2024-01-11T00:03:14;31.35;;;12.25;;
75021;SDS011;63583;49.976;20.182;2024-01-11T00:05:40;21.13;;;8.85;;
75021;SDS011;63583;49.976;20.182;2024-01-11T00:08:07;18.30;;;8.98;;
75021;SDS011;63583;49.976;20.182;2024-01-11T00:10:33;27.92;;;10.85;;
75021;SDS011;63583;49.976;20.182;2024-01-11T00:12:58;24.30;;;11.52;;
75021;SDS011;63583;49.976;20.182;2024-01-11T00:15:24;25.33;;;9.93;;
75021;SDS011;63583;49.976;20.182;2024-01-11T00:17:50;21.65;;;9.73;;
75021;SDS011;63583;49.976;20.182;2024-01-11T00:20:16;25.13;;;10.95;;
75021;SDS011;63583;49.976;20.182;2024-01-11T00:22:42;25.30;;;10.40;;
75021;SDS011;63583;49.976;20.182;2024-01-11T00:25:08;22.88;;;10.00;;
75021;SDS011;63583;49.976;20.182;2024-01-11T00:27:33;21.38;;;9.27;;
75021;SDS011;63583;49.976;20.182;2024-01-11T00:29:59;24.73;;;10.07;;
75021;SDS011;63583;49.976;20.182;2024-01-11T00:32:25;24.42;;;10.00;;
75021;SDS011;63583;49.976;20.182;2024-01-11T00:34:51;27.15;;;10.43;;
75021;SDS011;63583;49.976;20.182;2024-01-11T00:37:17;24.45;;;10.57;;
75021;SDS011;63583;49.976;20.182;2024-01-11T00:39:43;26.27;;;9.77;;
75021;SDS011;63583;49.976;20.182;2024-01-11T00:42:09;28.67;;;10.20;;
75021;SDS011;63583;49.976;20.182;2024-01-11T00:44:35;23.38;;;10.02;;
75021;SDS011;63583;49.976;20.182;2024-01-11T00:47:01;20.85;;;10.05;;
75021;SDS011;63583;49.976;20.182;2024-01-11T00:49:27;24.00;;;9.23;;
75021;SDS011;63583;49.976;20.182;2024-01-11T00:51:52;27.02;;;10.85;;
75021;SDS011;63583;49.976;20.182;2024-01-11T00:54:18;20.00;;;9.25;;
75021;SDS011;63583;49.976;20.182;2024-01-11T00:56:44;20.15;;;9.10;;
75021;SDS011;63583;49.976;20.182;2024-01-11T00:59:10;25.00;;;9.30;;
75021;SDS011;63583;49.976;20.182;2024-01-11T01:01:35;20.83;;;9.00;;
75021;SDS011;63583;49.976;20.182;2024-01-11T01:04:02;23.63;;;9.70;;
75021;SDS011;63583;49.976;20.182;2024-01-11T01:06:27;18.50;;;7.63;;
75021;SDS011;63583;49.976;20.182;2024-01-11T01:08:55;14.20;;;7.68;;
75021;SDS011;63583;49.976;20.182;2024-01-11T01:11:21;14.90;;;7.55;;
75021;SDS011;63583;49.976;20.182;2024-01-11T01:13:47;18.50;;;7.93;;
75021;SDS011;63583;49.976;20.182;2024-01-11T01:16:13;15.88;;;6.60;;
75021;SDS011;63583;49.976;20.182;2024-01-11T01:18:39;8.10;;;5.25;;
75021;SDS011;63583;49.976;20.182;2024-01-11T01:21:05;16.65;;;6.63;;
75021;SDS011;63583;49.976;20.182;2024-01-11T01:23:32;16.55;;;7.72;;
75021;SDS011;63583;49.976;20.182;2024-01-11T01:25:58;13.95;;;7.88;;
75021;SDS011;63583;49.976;20.182;2024-01-11T01:28:24;16.60;;;7.47;;
75021;SDS011;63583;49.976;20.182;2024-01-11T01:30:49;16.55;;;7.38;;
75021;SDS011;63583;49.976;20.182;2024-01-11T01:33:15;20.42;;;7.30;;
75021;SDS011;63583;49.976;20.182;2024-01-11T01:35:41;15.32;;;7.40;;
75021;SDS011;63583;49.976;20.182;2024-01-11T01:38:07;16.73;;;6.95;;
75021;SDS011;63583;49.976;20.182;2024-01-11T01:40:32;13.15;;;6.57;;
75021;SDS011;63583;49.976;20.182;2024-01-11T01:42:58;13.85;;;6.00;;
75021;SDS011;63583;49.976;20.182;2024-01-11T01:45:27;16.60;;;7.22;;
75021;SDS011;63583;49.976;20.182;2024-01-11T01:47:55;18.25;;;8.02;;
75021;SDS011;63583;49.976;20.182;2024-01-11T01:50:21;15.73;;;6.43;;
75021;SDS011;63583;49.976;20.182;2024-01-11T01:52:47;15.80;;;7.22;;
75021;SDS011;63583;49.976;20.182;2024-01-11T01:55:14;14.07;;;7.03;;
75021;SDS011;63583;49.976;20.182;2024-01-11T01:57:41;16.02;;;7.32;;
75021;SDS011;63583;49.976;20.182;2024-01-11T02:00:09;21.10;;;7.22;;
75021;SDS011;63583;49.976;20.182;2024-01-11T02:02:37;15.80;;;8.23;;
75021;SDS011;63583;49.976;20.182;2024-01-11T02:05:05;21.35;;;9.52;;
75021;SDS011;63583;49.976;20.182;2024-01-11T02:07:32;22.23;;;9.27;;
75021;SDS011;63583;49.976;20.182;2024-01-11T02:09:57;18.77;;;8.88;;
75021;SDS011;63583;49.976;20.182;2024-01-11T02:12:24;21.85;;;8.93;;
75021;SDS011;63583;49.976;20.182;2024-01-11T02:14:52;21.88;;;9.65;;
75021;SDS011;63583;49.976;20.182;2024-01-11T02:17:19;20.45;;;9.93;;
75021;SDS011;63583;49.976;20.182;2024-01-11T02:19:45;23.10;;;9.90;;
75021;SDS011;63583;49.976;20.182;2024-01-11T02:22:21;20.98;;;8.55;;
75021;SDS011;63583;49.976;20.182;2024-01-11T02:24:49;13.77;;;7.07;;
75021;SDS011;63583;49.976;20.182;2024-01-11T02:27:15;20.40;;;8.70;;
75021;SDS011;63583;49.976;20.182;2024-01-11T02:29:41;18.60;;;8.80;;
75021;SDS011;63583;49.976;20.182;2024-01-11T02:32:07;13.48;;;7.47;;
75021;SDS011;63583;49.976;20.182;2024-01-11T02:34:33;22.25;;;8.63;;
75021;SDS011;63583;49.976;20.182;2024-01-11T02:37:00;16.10;;;7.75;;
75021;SDS011;63583;49.976;20.182;2024-01-11T02:39:26;19.17;;;9.00;;
75021;SDS011;63583;49.976;20.182;2024-01-11T02:41:52;24.23;;;10.48;;
75021;SDS011;63583;49.976;20.182;2024-01-11T02:44:20;19.05;;;8.10;;
75021;SDS011;63583;49.976;20.182;2024-01-11T02:46:46;20.45;;;9.55;;
75021;SDS011;63583;49.976;20.182;2024-01-11T02:49:11;10.52;;;6.25;;
75021;SDS011;63583;49.976;20.182;2024-01-11T02:51:37;25.52;;;10.70;;
75021;SDS011;63583;49.976;20.182;2024-01-11T02:54:03;23.23;;;10.27;;
75021;SDS011;63583;49.976;20.182;2024-01-11T02:56:29;26.42;;;10.05;;
75021;SDS011;63583;49.976;20.182;2024-01-11T02:58:55;26.88;;;9.07;;
75021;SDS011;63583;49.976;20.182;2024-01-11T03:01:21;27.30;;;10.98;;
75021;SDS011;63583;49.976;20.182;2024-01-11T03:03:46;23.80;;;9.98;;
75021;SDS011;63583;49.976;20.182;2024-01-11T03:06:12;18.83;;;9.20;;
75021;SDS011;63583;49.976;20.182;2024-01-11T03:08:38;20.50;;;7.43;;
75021;SDS011;63583;49.976;20.182;2024-01-11T03:11:03;20.70;;;9.40;;
75021;SDS011;63583;49.976;20.182;2024-01-11T03:13:29;16.27;;;7.82;;
75021;SDS011;63583;49.976;20.182;2024-01-11T03:15:55;22.42;;;8.70;;
75021;SDS011;63583;49.976;20.182;2024-01-11T03:18:20;13.90;;;8.07;;
75021;SDS011;63583;49.976;20.182;2024-01-11T03:20:46;21.63;;;9.13;;
75021;SDS011;63583;49.976;20.182;2024-01-11T03:23:12;21.92;;;8.88;;
75021;SDS011;63583;49.976;20.182;2024-01-11T03:25:37;22.75;;;9.50;;
75021;SDS011;63583;49.976;20.182;2024-01-11T03:28:04;23.48;;;10.85;;
75021;SDS011;63583;49.976;20.182;2024-01-11T03:30:30;23.98;;;9.95;;
75021;SDS011;63583;49.976;20.182;2024-01-11T03:32:55;17.83;;;8.18;;
75021;SDS011;63583;49.976;20.182;2024-01-11T03:35:21;19.42;;;6.70;;
75021;SDS011;63583;49.976;20.182;2024-01-11T03:37:47;15.35;;;6.15;;
75021;SDS011;63583;49.976;20.182;2024-01-11T03:40:13;15.43;;;6.70;;
75021;SDS011;63583;49.976;20.182;2024-01-11T03:42:39;9.20;;;4.72;;
75021;SDS011;63583;49.976;20.182;2024-01-11T03:45:05;14.57;;;6.25;;
75021;SDS011;63583;49.976;20.182;2024-01-11T03:47:31;14.98;;;5.88;;
75021;SDS011;63583;49.976;20.182;2024-01-11T03:49:57;16.50;;;7.18;;
75021;SDS011;63583;49.976;20.182;2024-01-11T03:52:22;16.13;;;7.00;;
75021;SDS011;63583;49.976;20.182;2024-01-11T03:54:48;13.88;;;5.88;;
75021;SDS011;63583;49.976;20.182;2024-01-11T03:57:14;15.88;;;6.38;;
75021;SDS011;63583;49.976;20.182;2024-01-11T03:59:40;8.95;;;4.93;;
75021;SDS011;63583;49.976;20.182;2024-01-11T04:02:06;14.98;;;7.53;;
75021;SDS011;63583;49.976;20.182;2024-01-11T04:04:33;12.70;;;5.22;;
75021;SDS011;63583;49.976;20.182;2024-01-11T04:06:58;12.80;;;5.50;;
75021;SDS011;63583;49.976;20.182;2024-01-11T04:09:25;13.55;;;6.25;;
75021;SDS011;63583;49.976;20.182;2024-01-11T04:11:50;14.27;;;6.90;;
75021;SDS011;63583;49.976;20.182;2024-01-11T04:14:16;15.85;;;6.50;;
75021;SDS011;63583;49.976;20.182;2024-01-11T04:16:42;12.23;;;5.32;;
75021;SDS011;63583;49.976;20.182;2024-01-11T04:19:08;11.00;;;4.47;;
75021;SDS011;63583;49.976;20.182;2024-01-11T04:21:34;13.68;;;6.28;;
75021;SDS011;63583;49.976;20.182;2024-01-11T04:24:00;15.63;;;6.32;;
75021;SDS011;63583;49.976;20.182;2024-01-11T04:26:26;19.10;;;7.10;;
75021;SDS011;63583;49.976;20.182;2024-01-11T04:28:52;10.55;;;4.97;;
75021;SDS011;63583;49.976;20.182;2024-01-11T04:31:18;13.93;;;5.80;;
75021;SDS011;63583;49.976;20.182;2024-01-11T04:33:45;8.02;;;4.47;;
75021;SDS011;63583;49.976;20.182;2024-01-11T04:36:11;15.77;;;7.10;;
75021;SDS011;63583;49.976;20.182;2024-01-11T04:38:38;15.32;;;5.40;;
75021;SDS011;63583;49.976;20.182;2024-01-11T04:41:08;15.85;;;7.10;;
75021;SDS011;63583;49.976;20.182;2024-01-11T04:43:41;12.18;;;5.88;;
75021;SDS011;63583;49.976;20.182;2024-01-11T04:46:14;10.88;;;5.63;;
75021;SDS011;63583;49.976;20.182;2024-01-11T04:48:44;13.40;;;5.72;;
75021;SDS011;63583;49.976;20.182;2024-01-11T04:51:10;15.85;;;5.70;;
75021;SDS011;63583;49.976;20.182;2024-01-11T04:53:38;12.55;;;5.63;;
75021;SDS011;63583;49.976;20.182;2024-01-11T04:56:04;10.68;;;6.20;;
75021;SDS011;63583;49.976;20.182;2024-01-11T04:58:32;13.10;;;5.90;;
75021;SDS011;63583;49.976;20.182;2024-01-11T05:00:58;11.25;;;4.82;;
75021;SDS011;63583;49.976;20.182;2024-01-11T05:03:24;17.70;;;6.90;;
75021;SDS011;63583;49.976;20.182;2024-01-11T05:05:49;17.95;;;7.15;;
75021;SDS011;63583;49.976;20.182;2024-01-11T05:08:15;8.90;;;4.95;;
75021;SDS011;63583;49.976;20.182;2024-01-11T05:10:41;11.07;;;5.70;;
75021;SDS011;63583;49.976;20.182;2024-01-11T05:13:07;10.35;;;5.57;;
75021;SDS011;63583;49.976;20.182;2024-01-11T05:15:34;13.18;;;6.57;;
75021;SDS011;63583;49.976;20.182;2024-01-11T05:18:00;13.20;;;5.82;;
75021;SDS011;63583;49.976;20.182;2024-01-11T05:20:26;13.98;;;6.10;;
75021;SDS011;63583;49.976;20.182;2024-01-11T05:22:52;14.27;;;6.13;;
75021;SDS011;63583;49.976;20.182;2024-01-11T05:25:17;12.80;;;6.57;;
75021;SDS011;63583;49.976;20.182;2024-01-11T05:27:43;11.10;;;5.75;;
75021;SDS011;63583;49.976;20.182;2024-01-11T05:30:09;9.10;;;6.35;;
75021;SDS011;63583;49.976;20.182;2024-01-11T05:32:35;13.98;;;6.32;;
75021;SDS011;63583;49.976;20.182;2024-01-11T05:35:01;8.55;;;4.75;;
75021;SDS011;63583;49.976;20.182;2024-01-11T05:37:27;8.65;;;4.40;;
75021;SDS011;63583;49.976;20.182;2024-01-11T05:39:52;10.00;;;5.32;;
75021;SDS011;63583;49.976;20.182;2024-01-11T05:42:19;10.35;;;5.43;;
75021;SDS011;63583;49.976;20.182;2024-01-11T05:44:45;9.95;;;4.50;;
75021;SDS011;63583;49.976;20.182;2024-01-11T05:47:11;10.52;;;4.10;;
75021;SDS011;63583;49.976;20.182;2024-01-11T05:49:37;9.70;;;4.65;;
75021;SDS011;63583;49.976;20.182;2024-01-11T05:52:03;12.45;;;5.72;;
75021;SDS011;63583;49.976;20.182;2024-01-11T05:54:28;9.90;;;5.32;;
75021;SDS011;63583;49.976;20.182;2024-01-11T05:56:55;11.57;;;5.32;;
75021;SDS011;63583;49.976;20.182;2024-01-11T05:59:24;5.20;;;3.30;;
75021;SDS011;63583;49.976;20.182;2024-01-11T06:01:50;10.52;;;4.45;;
75021;SDS011;63583;49.976;20.182;2024-01-11T06:04:16;9.52;;;3.92;;
75021;SDS011;63583;49.976;20.182;2024-01-11T06:06:42;13.50;;;4.43;;
75021;SDS011;63583;49.976;20.182;2024-01-11T06:09:08;8.90;;;4.53;;
75021;SDS011;63583;49.976;20.182;2024-01-11T06:11:35;11.13;;;5.03;;
75021;SDS011;63583;49.976;20.182;2024-01-11T06:14:01;11.93;;;4.38;;
75021;SDS011;63583;49.976;20.182;2024-01-11T06:16:28;9.13;;;4.70;;
75021;SDS011;63583;49.976;20.182;2024-01-11T06:18:54;13.38;;;5.35;;
75021;SDS011;63583;49.976;20.182;2024-01-11T06:21:20;15.25;;;5.70;;
75021;SDS011;63583;49.976;20.182;2024-01-11T06:23:46;12.60;;;4.72;;
75021;SDS011;63583;49.976;20.182;2024-01-11T06:26:12;14.73;;;5.50;;
75021;SDS011;63583;49.976;20.182;2024-01-11T06:28:37;12.65;;;6.25;;
75021;SDS011;63583;49.976;20.182;2024-01-11T06:31:03;15.57;;;7.13;;
75021;SDS011;63583;49.976;20.182;2024-01-11T06:33:29;10.02;;;5.70;;
75021;SDS011;63583;49.976;20.182;2024-01-11T06:35:55;10.88;;;5.75;;
75021;SDS011;63583;49.976;20.182;2024-01-11T06:38:24;11.00;;;6.05;;
75021;SDS011;63583;49.976;20.182;2024-01-11T06:40:49;13.43;;;6.65;;
75021;SDS011;63583;49.976;20.182;2024-01-11T06:43:15;14.15;;;6.22;;
75021;SDS011;63583;49.976;20.182;2024-01-11T06:45:44;11.70;;;6.00;;
75021;SDS011;63583;49.976;20.182;2024-01-11T06:48:10;12.60;;;5.50;;
75021;SDS011;63583;49.976;20.182;2024-01-11T06:50:36;15.20;;;5.18;;
75021;SDS011;63583;49.976;20.182;2024-01-11T06:53:02;13.57;;;6.45;;
75021;SDS011;63583;49.976;20.182;2024-01-11T06:55:28;19.83;;;7.78;;
75021;SDS011;63583;49.976;20.182;2024-01-11T06:57:54;10.55;;;4.07;;
75021;SDS011;63583;49.976;20.182;2024-01-11T07:00:20;18.63;;;7.55;;
75021;SDS011;63583;49.976;20.182;2024-01-11T07:02:46;21.48;;;8.63;;
75021;SDS011;63583;49.976;20.182;2024-01-11T07:05:13;16.60;;;7.20;;
75021;SDS011;63583;49.976;20.182;2024-01-11T07:07:38;20.33;;;7.60;;
75021;SDS011;63583;49.976;20.182;2024-01-11T07:10:05;18.95;;;7.78;;
75021;SDS011;63583;49.976;20.182;2024-01-11T07:12:31;19.48;;;8.25;;
75021;SDS011;63583;49.976;20.182;2024-01-11T07:14:58;22.48;;;9.20;;
75021;SDS011;63583;49.976;20.182;2024-01-11T07:17:24;14.77;;;7.07;;
75021;SDS011;63583;49.976;20.182;2024-01-11T07:19:50;18.65;;;8.07;;
75021;SDS011;63583;49.976;20.182;2024-01-11T07:22:16;14.25;;;7.68;;
75021;SDS011;63583;49.976;20.182;2024-01-11T07:24:42;16.33;;;7.90;;
75021;SDS011;63583;49.976;20.182;2024-01-11T07:27:08;14.82;;;5.82;;
75021;SDS011;63583;49.976;20.182;2024-01-11T07:29:34;18.25;;;7.18;;
75021;SDS011;63583;49.976;20.182;2024-01-11T07:32:00;15.85;;;6.93;;
75021;SDS011;63583;49.976;20.182;2024-01-11T07:34:27;13.32;;;5.53;;
75021;SDS011;63583;49.976;20.182;2024-01-11T07:36:53;12.88;;;5.68;;
75021;SDS011;63583;49.976;20.182;2024-01-11T07:39:19;15.90;;;6.40;;
75021;SDS011;63583;49.976;20.182;2024-01-11T07:41:45;18.65;;;7.30;;
75021;SDS011;63583;49.976;20.182;2024-01-11T07:44:11;12.82;;;6.65;;
75021;SDS011;63583;49.976;20.182;2024-01-11T07:46:37;9.30;;;5.00;;
75021;SDS011;63583;49.976;20.182;2024-01-11T07:49:03;15.88;;;6.60;;
75021;SDS011;63583;49.976;20.182;2024-01-11T07:51:30;14.77;;;7.22;;
75021;SDS011;63583;49.976;20.182;2024-01-11T07:53:56;14.07;;;6.07;;
75021;SDS011;63583;49.976;20.182;2024-01-11T07:56:22;16.52;;;7.05;;
75021;SDS011;63583;49.976;20.182;2024-01-11T07:58:49;10.82;;;5.32;;
75021;SDS011;63583;49.976;20.182;2024-01-11T08:01:15;10.23;;;5.45;;
75021;SDS011;63583;49.976;20.182;2024-01-11T08:03:44;14.27;;;6.43;;
75021;SDS011;63583;49.976;20.182;2024-01-11T08:06:10;13.20;;;6.32;;
75021;SDS011;63583;49.976;20.182;2024-01-11T08:08:39;12.93;;;4.68;;
75021;SDS011;63583;49.976;20.182;2024-01-11T08:11:08;12.07;;;5.85;;
75021;SDS011;63583;49.976;20.182;2024-01-11T08:13:35;11.27;;;5.57;;
75021;SDS011;63583;49.976;20.182;2024-01-11T08:16:03;11.82;;;5.03;;
75021;SDS011;63583;49.976;20.182;2024-01-11T08:18:30;8.40;;;4.63;;
75021;SDS011;63583;49.976;20.182;2024-01-11T08:20:56;10.80;;;5.45;;
75021;SDS011;63583;49.976;20.182;2024-01-11T08:23:22;11.27;;;4.95;;
75021;SDS011;63583;49.976;20.182;2024-01-11T08:25:48;10.63;;;4.35;;
75021;SDS011;63583;49.976;20.182;2024-01-11T08:28:15;7.85;;;3.83;;
75021;SDS011;63583;49.976;20.182;2024-01-11T08:30:40;10.40;;;4.63;;
75021;SDS011;63583;49.976;20.182;2024-01-11T08:33:08;10.60;;;5.65;;
75021;SDS011;63583;49.976;20.182;2024-01-11T08:35:34;12.65;;;7.03;;
75021;SDS011;63583;49.976;20.182;2024-01-11T08:38:00;11.13;;;5.28;;
75021;SDS011;63583;49.976;20.182;2024-01-11T08:40:26;14.88;;;6.68;;
75021;SDS011;63583;49.976;20.182;2024-01-11T08:42:53;14.10;;;5.43;;
75021;SDS011;63583;49.976;20.182;2024-01-11T08:45:19;13.45;;;5.63;;
75021;SDS011;63583;49.976;20.182;2024-01-11T08:47:45;13.38;;;5.20;;
75021;SDS011;63583;49.976;20.182;2024-01-11T08:50:14;12.40;;;5.65;;
75021;SDS011;63583;49.976;20.182;2024-01-11T08:52:41;13.32;;;6.00;;
75021;SDS011;63583;49.976;20.182;2024-01-11T08:55:09;15.63;;;5.95;;
75021;SDS011;63583;49.976;20.182;2024-01-11T08:57:36;8.82;;;4.13;;
75021;SDS011;63583;49.976;20.182;2024-01-11T09:00:03;12.18;;;5.40;;
75021;SDS011;63583;49.976;20.182;2024-01-11T09:02:30;10.88;;;5.38;;
75021;SDS011;63583;49.976;20.182;2024-01-11T09:04:55;10.32;;;4.60;;
75021;SDS011;63583;49.976;20.182;2024-01-11T09:07:21;15.25;;;6.05;;
75021;SDS011;63583;49.976;20.182;2024-01-11T09:09:47;10.65;;;5.30;;
75021;SDS011;63583;49.976;20.182;2024-01-11T09:12:13;8.00;;;3.85;;
75021;SDS011;63583;49.976;20.182;2024-01-11T09:14:39;10.00;;;4.82;;
75021;SDS011;63583;49.976;20.182;2024-01-11T09:17:05;10.23;;;4.95;;
75021;SDS011;63583;49.976;20.182;2024-01-11T09:19:34;10.48;;;4.65;;
75021;SDS011;63583;49.976;20.182;2024-01-11T09:22:00;6.55;;;3.83;;
75021;SDS011;63583;49.976;20.182;2024-01-11T09:24:26;11.23;;;4.60;;
75021;SDS011;63583;49.976;20.182;2024-01-11T09:26:52;8.82;;;4.40;;
75021;SDS011;63583;49.976;20.182;2024-01-11T09:29:19;10.68;;;5.10;;
75021;SDS011;63583;49.976;20.182;2024-01-11T09:31:44;9.20;;;4.18;;
75021;SDS011;63583;49.976;20.182;2024-01-11T09:34:10;9.88;;;3.85;;
75021;SDS011;63583;49.976;20.182;2024-01-11T09:36:37;8.35;;;4.22;;
75021;SDS011;63583;49.976;20.182;2024-01-11T09:39:06;11.65;;;4.78;;
75021;SDS011;63583;49.976;20.182;2024-01-11T09:41:33;13.57;;;5.93;;
75021;SDS011;63583;49.976;20.182;2024-01-11T09:44:02;10.88;;;4.50;;
75021;SDS011;63583;49.976;20.182;2024-01-11T09:46:31;9.90;;;4.50;;
75021;SDS011;63583;49.976;20.182;2024-01-11T09:48:57;10.02;;;4.32;;
75021;SDS011;63583;49.976;20.182;2024-01-11T09:51:27;9.07;;;4.35;;
75021;SDS011;63583;49.976;20.182;2024-01-11T09:53:55;8.40;;;4.35;;
75021;SDS011;63583;49.976;20.182;2024-01-11T09:56:22;11.88;;;3.80;;
75021;SDS011;63583;49.976;20.182;2024-01-11T09:58:50;9.73;;;4.05;;
75021;SDS011;63583;49.976;20.182;2024-01-11T10:01:16;8.07;;;3.10;;
75021;SDS011;63583;49.976;20.182;2024-01-11T10:03:43;7.10;;;3.78;;
75021;SDS011;63583;49.976;20.182;2024-01-11T10:06:11;9.00;;;4.78;;
75021;SDS011;63583;49.976;20.182;2024-01-11T10:08:41;7.47;;;3.72;;
75021;SDS011;63583;49.976;20.182;2024-01-11T10:11:07;11.80;;;5.20;;
75021;SDS011;63583;49.976;20.182;2024-01-11T10:13:33;8.93;;;4.82;;
75021;SDS011;63583;49.976;20.182;2024-01-11T10:16:10;14.02;;;4.78;;
75021;SDS011;63583;49.976;20.182;2024-01-11T10:18:40;9.43;;;5.53;;
75021;SDS011;63583;49.976;20.182;2024-01-11T10:21:10;15.50;;;6.25;;
75021;SDS011;63583;49.976;20.182;2024-01-11T10:23:39;11.43;;;4.65;;
75021;SDS011;63583;49.976;20.182;2024-01-11T10:26:06;12.75;;;5.97;;
75021;SDS011;63583;49.976;20.182;2024-01-11T10:28:32;12.75;;;5.32;;
75021;SDS011;63583;49.976;20.182;2024-01-11T10:31:03;12.52;;;6.00;;
75021;SDS011;63583;49.976;20.182;2024-01-11T10:33:33;6.43;;;3.60;;
75021;SDS011;63583;49.976;20.182;2024-01-11T10:35:59;10.10;;;4.35;;
75021;SDS011;63583;49.976;20.182;2024-01-11T10:38:26;13.20;;;5.47;;
75021;SDS011;63583;49.976;20.182;2024-01-11T10:40:53;13.82;;;6.15;;
75021;SDS011;63583;49.976;20.182;2024-01-11T10:43:21;10.95;;;5.22;;
75021;SDS011;63583;49.976;20.182;2024-01-11T10:45:48;11.65;;;4.82;;
75021;SDS011;63583;49.976;20.182;2024-01-11T10:48:14;9.95;;;5.25;;
75021;SDS011;63583;49.976;20.182;2024-01-11T10:50:45;14.40;;;5.18;;
75021;SDS011;63583;49.976;20.182;2024-01-11T10:55:56;12.82;;;6.10;;
75021;SDS011;63583;49.976;20.182;2024-01-11T10:58:24;13.73;;;5.95;;
75021;SDS011;63583;49.976;20.182;2024-01-11T11:00:53;6.65;;;3.92;;
75021;SDS011;63583;49.976;20.182;2024-01-11T11:03:25;10.15;;;4.85;;
75021;SDS011;63583;49.976;20.182;2024-01-11T11:05:54;11.20;;;5.55;;
75021;SDS011;63583;49.976;20.182;2024-01-11T11:08:22;14.35;;;5.30;;
75021;SDS011;63583;49.976;20.182;2024-01-11T11:10:50;10.13;;;4.38;;
75021;SDS011;63583;49.976;20.182;2024-01-11T11:13:19;13.98;;;5.50;;
75021;SDS011;63583;49.976;20.182;2024-01-11T11:15:46;8.00;;;4.05;;
75021;SDS011;63583;49.976;20.182;2024-01-11T11:18:14;7.78;;;3.47;;
75021;SDS011;63583;49.976;20.182;2024-01-11T11:20:40;9.07;;;4.32;;
75021;SDS011;63583;49.976;20.182;2024-01-11T11:23:10;10.45;;;4.43;;
75021;SDS011;63583;49.976;20.182;2024-01-11T11:25:39;16.83;;;6.70;;
75021;SDS011;63583;49.976;20.182;2024-01-11T11:28:06;8.85;;;4.13;;
75021;SDS011;63583;49.976;20.182;2024-01-11T11:30:33;7.20;;;3.42;;
75021;SDS011;63583;49.976;20.182;2024-01-11T11:33:15;9.48;;;3.60;;
75021;SDS011;63583;49.976;20.182;2024-01-11T11:35:43;7.47;;;3.97;;
75021;SDS011;63583;49.976;20.182;2024-01-11T11:38:16;6.68;;;3.22;;
75021;SDS011;63583;49.976;20.182;2024-01-11T11:40:55;8.18;;;3.50;;
75021;SDS011;63583;49.976;20.182;2024-01-11T11:43:22;6.82;;;3.78;;
75021;SDS011;63583;49.976;20.182;2024-01-11T11:45:49;6.97;;;3.65;;
75021;SDS011;63583;49.976;20.182;2024-01-11T11:51:09;4.80;;;2.50;;
75021;SDS011;63583;49.976;20.182;2024-01-11T11:53:36;7.95;;;3.50;;
75021;SDS011;63583;49.976;20.182;2024-01-11T11:56:04;7.00;;;3.10;;
75021;SDS011;63583;49.976;20.182;2024-01-11T11:58:31;9.15;;;3.83;;
75021;SDS011;63583;49.976;20.182;2024-01-11T12:00:58;7.18;;;4.00;;
75021;SDS011;63583;49.976;20.182;2024-01-11T12:03:26;11.98;;;3.53;;
75021;SDS011;63583;49.976;20.182;2024-01-11T12:05:55;8.57;;;3.60;;
75021;SDS011;63583;49.976;20.182;2024-01-11T12:08:21;9.65;;;4.68;;
75021;SDS011;63583;49.976;20.182;2024-01-11T12:10:48;12.77;;;4.13;;
75021;SDS011;63583;49.976;20.182;2024-01-11T12:13:14;12.43;;;5.22;;
75021;SDS011;63583;49.976;20.182;2024-01-11T12:15:40;9.63;;;4.55;;
75021;SDS011;63583;49.976;20.182;2024-01-11T12:18:06;9.60;;;4.07;;
75021;SDS011;63583;49.976;20.182;2024-01-11T12:20:32;13.30;;;4.97;;
75021;SDS011;63583;49.976;20.182;2024-01-11T12:22:58;10.88;;;4.82;;
75021;SDS011;63583;49.976;20.182;2024-01-11T12:25:25;10.80;;;4.75;;
75021;SDS011;63583;49.976;20.182;2024-01-11T12:27:51;9.93;;;4.32;;
75021;SDS011;63583;49.976;20.182;2024-01-11T12:30:24;10.63;;;4.95;;
75021;SDS011;63583;49.976;20.182;2024-01-11T12:32:51;12.20;;;4.95;;
75021;SDS011;63583;49.976;20.182;2024-01-11T12:35:18;16.80;;;6.43;;
75021;SDS011;63583;49.976;20.182;2024-01-11T12:37:58;13.25;;;5.57;;
75021;SDS011;63583;49.976;20.182;2024-01-11T12:40:26;9.55;;;5.07;;
75021;SDS011;63583;49.976;20.182;2024-01-11T12:42:52;12.88;;;5.30;;
75021;SDS011;63583;49.976;20.182;2024-01-11T12:45:20;15.00;;;5.68;;
75021;SDS011;63583;49.976;20.182;2024-01-11T12:47:46;15.70;;;6.03;;
75021;SDS011;63583;49.976;20.182;2024-01-11T12:50:12;11.95;;;5.78;;
75021;SDS011;63583;49.976;20.182;2024-01-11T12:52:39;13.80;;;5.95;;
75021;SDS011;63583;49.976;20.182;2024-01-11T12:55:07;15.82;;;7.28;;
75021;SDS011;63583;49.976;20.182;2024-01-11T12:57:36;14.32;;;6.13;;
75021;SDS011;63583;49.976;20.182;2024-01-11T13:00:12;13.80;;;6.55;;
75021;SDS011;63583;49.976;20.182;2024-01-11T13:02:42;14.23;;;7.22;;
75021;SDS011;63583;49.976;20.182;2024-01-11T13:05:13;16.92;;;6.93;;
75021;SDS011;63583;49.976;20.182;2024-01-11T13:07:40;17.35;;;6.38;;
75021;SDS011;63583;49.976;20.182;2024-01-11T13:10:06;14.18;;;4.93;;
75021;SDS011;63583;49.976;20.182;2024-01-11T13:12:32;12.68;;;5.85;;
75021;SDS011;63583;49.976;20.182;2024-01-11T13:14:58;14.10;;;6.20;;
75021;SDS011;63583;49.976;20.182;2024-01-11T13:17:24;13.20;;;6.45;;
75021;SDS011;63583;49.976;20.182;2024-01-11T13:19:51;10.45;;;5.13;;
75021;SDS011;63583;49.976;20.182;2024-01-11T13:22:17;14.35;;;6.93;;
75021;SDS011;63583;49.976;20.182;2024-01-11T13:24:42;14.00;;;5.55;;
75021;SDS011;63583;49.976;20.182;2024-01-11T13:27:09;17.27;;;6.40;;
75021;SDS011;63583;49.976;20.182;2024-01-11T13:29:37;12.82;;;6.63;;
75021;SDS011;63583;49.976;20.182;2024-01-11T13:32:02;15.65;;;7.38;;
75021;SDS011;63583;49.976;20.182;2024-01-11T13:34:30;17.60;;;6.25;;
75021;SDS011;63583;49.976;20.182;2024-01-11T13:36:56;14.95;;;7.30;;
75021;SDS011;63583;49.976;20.182;2024-01-11T13:41:51;12.63;;;5.53;;
75021;SDS011;63583;49.976;20.182;2024-01-11T13:44:18;11.85;;;5.82;;
75021;SDS011;63583;49.976;20.182;2024-01-11T13:46:43;10.00;;;5.32;;
75021;SDS011;63583;49.976;20.182;2024-01-11T13:49:10;15.98;;;6.65;;
75021;SDS011;63583;49.976;20.182;2024-01-11T13:51:37;16.95;;;6.57;;
75021;SDS011;63583;49.976;20.182;2024-01-11T13:54:03;20.27;;;7.80;;
75021;SDS011;63583;49.976;20.182;2024-01-11T13:56:29;14.18;;;6.38;;
75021;SDS011;63583;49.976;20.182;2024-01-11T13:58:56;17.50;;;8.07;;
75021;SDS011;63583;49.976;20.182;2024-01-11T14:01:23;19.38;;;6.90;;
75021;SDS011;63583;49.976;20.182;2024-01-11T14:03:49;17.10;;;8.18;;
75021;SDS011;63583;49.976;20.182;2024-01-11T14:06:14;18.08;;;9.60;;
75021;SDS011;63583;49.976;20.182;2024-01-11T14:08:40;22.75;;;8.88;;
75021;SDS011;63583;49.976;20.182;2024-01-11T14:11:06;21.30;;;9.98;;
75021;SDS011;63583;49.976;20.182;2024-01-11T14:13:32;22.15;;;8.80;;
75021;SDS011;63583;49.976;20.182;2024-01-11T14:15:57;16.30;;;7.88;;
75021;SDS011;63583;49.976;20.182;2024-01-11T14:18:23;20.83;;;9.95;;
75021;SDS011;63583;49.976;20.182;2024-01-11T14:20:49;22.50;;;9.63;;
75021;SDS011;63583;49.976;20.182;2024-01-11T14:23:15;20.85;;;10.32;;
75021;SDS011;63583;49.976;20.182;2024-01-11T14:25:41;19.15;;;8.48;;
75021;SDS011;63583;49.976;20.182;2024-01-11T14:28:07;20.27;;;9.52;;